sensor_id;sensor_type;location;lat;lon;timestamp;P1;durP1;ratioP1;P2;durP2;ratioP2
33162;SDS011;29282;45.656;11.302;2023-01-25T00:02:19;7.82;;;4.07;;
33162;SDS011;29282;45.656;11.302;2023-01-25T00:04:45;6.85;;;3.75;;
33162;SDS011;29282;45.656;11.302;2023-01-25T00:07:10;6.78;;;3.70;;
33162;SDS011;29282;45.656;11.302;2023-01-25T00:09:36;6.05;;;3.72;;
33162;SDS011;29282;45.656;11.302;2023-01-25T00:12:01;6.78;;;3.55;;
33162;SDS011;29282;45.656;11.302;2023-01-25T00:14:27;6.60;;;3.78;;
33162;SDS011;29282;45.656;11.302;2023-01-25T00:16:52;10.50;;;3.90;;
33162;SDS011;29282;45.656;11.302;2023-01-25T00:19:18;5.72;;;3.40;;
33162;SDS011;29282;45.656;11.302;2023-01-25T00:21:43;4.90;;;3.28;;
33162;SDS011;29282;45.656;11.302;2023-01-25T00:24:09;7.32;;;4.03;;
33162;SDS011;29282;45.656;11.302;2023-01-25T00:26:36;7.57;;;3.92;;
33162;SDS011;29282;45.656;11.302;2023-01-25T00:29:03;5.28;;;2.97;;
33162;SDS011;29282;45.656;11.302;2023-01-25T00:34:05;7.20;;;3.45;;
33162;SDS011;29282;45.656;11.302;2023-01-25T00:36:32;5.40;;;2.95;;
33162;SDS011;29282;45.656;11.302;2023-01-25T00:38:58;5.85;;;2.88;;
33162;SDS011;29282;45.656;11.302;2023-01-25T00:41:24;6.30;;;3.35;;
33162;SDS011;29282;45.656;11.302;2023-01-25T00:43:49;5.80;;;3.50;;
33162;SDS011;29282;45.656;11.302;2023-01-25T00:46:15;7.15;;;3.40;;
33162;SDS011;29282;45.656;11.302;2023-01-25T00:48:42;6.38;;;2.95;;
33162;SDS011;29282;45.656;11.302;2023-01-25T00:51:08;6.75;;;3.45;;
33162;SDS011;29282;45.656;11.302;2023-01-25T00:53:33;6.15;;;3.03;;
33162;SDS011;29282;45.656;11.302;2023-01-25T00:55:59;4.50;;;2.97;;
33162;SDS011;29282;45.656;11.302;2023-01-25T00:58:24;7.05;;;3.15;;
33162;SDS011;29282;45.656;11.302;2023-01-25T01:00:54;6.60;;;3.33;;
33162;SDS011;29282;45.656;11.302;2023-01-25T01:03:20;5.70;;;2.90;;
33162;SDS011;29282;45.656;11.302;2023-01-25T01:05:46;5.70;;;3.00;;
33162;SDS011;29282;45.656;11.302;2023-01-25T01:08:12;6.05;;;2.90;;
33162;SDS011;29282;45.656;11.302;2023-01-25T01:10:39;6.20;;;3.15;;
33162;SDS011;29282;45.656;11.302;2023-01-25T01:13:04;5.00;;;2.53;;
33162;SDS011;29282;45.656;11.302;2023-01-25T01:15:30;5.53;;;3.00;;
33162;SDS011;29282;45.656;11.302;2023-01-25T01:17:56;5.10;;;2.75;;
33162;SDS011;29282;45.656;11.302;2023-01-25T01:20:21;5.55;;;2.95;;
33162;SDS011;29282;45.656;11.302;2023-01-25T01:22:47;4.88;;;2.88;;
33162;SDS011;29282;45.656;11.302;2023-01-25T01:25:12;4.10;;;3.03;;
33162;SDS011;29282;45.656;11.302;2023-01-25T01:27:38;4.63;;;2.50;;
33162;SDS011;29282;45.656;11.302;2023-01-25T01:30:03;5.38;;;2.92;;
33162;SDS011;29282;45.656;11.302;2023-01-25T01:32:30;4.28;;;2.80;;
33162;SDS011;29282;45.656;11.302;2023-01-25T01:34:55;4.80;;;2.83;;
33162;SDS011;29282;45.656;11.302;2023-01-25T01:37:21;5.03;;;2.65;;
33162;SDS011;29282;45.656;11.302;2023-01-25T01:39:46;3.60;;;2.35;;
33162;SDS011;29282;45.656;11.302;2023-01-25T01:42:12;4.45;;;2.40;;
33162;SDS011;29282;45.656;11.302;2023-01-25T01:44:42;3.92;;;2.47;;
33162;SDS011;29282;45.656;11.302;2023-01-25T01:47:21;5.72;;;2.95;;
33162;SDS011;29282;45.656;11.302;2023-01-25T01:49:54;4.38;;;2.67;;
33162;SDS011;29282;45.656;11.302;2023-01-25T01:52:32;3.95;;;2.22;;
33162;SDS011;29282;45.656;11.302;2023-01-25T01:55:02;4.72;;;3.00;;
33162;SDS011;29282;45.656;11.302;2023-01-25T01:57:37;4.72;;;2.47;;
33162;SDS011;29282;45.656;11.302;2023-01-25T02:00:09;4.38;;;3.00;;
33162;SDS011;29282;45.656;11.302;2023-01-25T02:02:38;3.85;;;2.42;;
33162;SDS011;29282;45.656;11.302;2023-01-25T02:05:05;4.30;;;2.97;;
33162;SDS011;29282;45.656;11.302;2023-01-25T02:07:37;4.32;;;2.55;;
33162;SDS011;29282;45.656;11.302;2023-01-25T02:10:04;3.92;;;2.60;;
33162;SDS011;29282;45.656;11.302;2023-01-25T02:12:33;3.95;;;2.42;;
33162;SDS011;29282;45.656;11.302;2023-01-25T02:15:00;3.28;;;2.33;;
33162;SDS011;29282;45.656;11.302;2023-01-25T02:17:27;4.38;;;2.55;;
33162;SDS011;29282;45.656;11.302;2023-01-25T02:20:03;3.17;;;2.30;;
33162;SDS011;29282;45.656;11.302;2023-01-25T02:22:42;3.65;;;2.63;;
33162;SDS011;29282;45.656;11.302;2023-01-25T02:25:09;3.25;;;2.20;;
33162;SDS011;29282;45.656;11.302;2023-01-25T02:27:37;3.88;;;2.40;;
33162;SDS011;29282;45.656;11.302;2023-01-25T02:30:10;3.50;;;2.33;;
33162;SDS011;29282;45.656;11.302;2023-01-25T02:32:35;3.70;;;2.50;;
33162;SDS011;29282;45.656;11.302;2023-01-25T02:35:01;3.45;;;2.20;;
33162;SDS011;29282;45.656;11.302;2023-01-25T02:37:27;4.07;;;2.47;;
33162;SDS011;29282;45.656;11.302;2023-01-25T02:39:53;3.08;;;2.00;;
33162;SDS011;29282;45.656;11.302;2023-01-25T02:42:18;3.72;;;2.25;;
33162;SDS011;29282;45.656;11.302;2023-01-25T02:44:44;4.40;;;2.33;;
33162;SDS011;29282;45.656;11.302;2023-01-25T02:47:09;5.75;;;2.38;;
33162;SDS011;29282;45.656;11.302;2023-01-25T02:49:35;4.55;;;2.65;;
33162;SDS011;29282;45.656;11.302;2023-01-25T02:52:01;4.05;;;2.25;;
33162;SDS011;29282;45.656;11.302;2023-01-25T02:54:28;3.15;;;2.10;;
33162;SDS011;29282;45.656;11.302;2023-01-25T02:56:53;2.88;;;2.15;;
33162;SDS011;29282;45.656;11.302;2023-01-25T02:59:19;2.20;;;1.95;;
33162;SDS011;29282;45.656;11.302;2023-01-25T03:01:45;3.20;;;2.10;;
33162;SDS011;29282;45.656;11.302;2023-01-25T03:04:11;2.83;;;2.13;;
33162;SDS011;29282;45.656;11.302;2023-01-25T03:06:37;3.35;;;2.42;;
33162;SDS011;29282;45.656;11.302;2023-01-25T03:09:04;3.90;;;2.20;;
33162;SDS011;29282;45.656;11.302;2023-01-25T03:11:32;5.47;;;2.38;;
33162;SDS011;29282;45.656;11.302;2023-01-25T03:13:58;3.25;;;2.03;;
33162;SDS011;29282;45.656;11.302;2023-01-25T03:16:24;3.60;;;2.00;;
33162;SDS011;29282;45.656;11.302;2023-01-25T03:18:51;3.78;;;2.30;;
33162;SDS011;29282;45.656;11.302;2023-01-25T03:21:19;2.97;;;2.22;;
33162;SDS011;29282;45.656;11.302;2023-01-25T03:23:46;3.00;;;2.00;;
33162;SDS011;29282;45.656;11.302;2023-01-25T03:28:39;3.13;;;2.00;;
33162;SDS011;29282;45.656;11.302;2023-01-25T03:31:07;4.00;;;2.22;;
33162;SDS011;29282;45.656;11.302;2023-01-25T03:33:34;2.60;;;1.83;;
33162;SDS011;29282;45.656;11.302;2023-01-25T03:36:00;3.25;;;2.00;;
33162;SDS011;29282;45.656;11.302;2023-01-25T03:38:25;2.90;;;1.80;;
33162;SDS011;29282;45.656;11.302;2023-01-25T03:40:51;1.80;;;1.55;;
33162;SDS011;29282;45.656;11.302;2023-01-25T03:43:17;2.63;;;1.95;;
33162;SDS011;29282;45.656;11.302;2023-01-25T03:45:43;2.38;;;1.80;;
33162;SDS011;29282;45.656;11.302;2023-01-25T03:48:08;3.78;;;2.30;;
33162;SDS011;29282;45.656;11.302;2023-01-25T03:50:34;3.10;;;2.25;;
33162;SDS011;29282;45.656;11.302;2023-01-25T03:53:02;3.00;;;2.05;;
33162;SDS011;29282;45.656;11.302;2023-01-25T03:55:50;3.38;;;1.70;;
33162;SDS011;29282;45.656;11.302;2023-01-25T03:58:16;2.83;;;2.00;;
33162;SDS011;29282;45.656;11.302;2023-01-25T04:00:41;3.00;;;2.10;;
33162;SDS011;29282;45.656;11.302;2023-01-25T04:03:07;3.53;;;2.00;;
33162;SDS011;29282;45.656;11.302;2023-01-25T04:05:32;2.20;;;1.98;;
33162;SDS011;29282;45.656;11.302;2023-01-25T04:07:58;2.25;;;1.60;;
33162;SDS011;29282;45.656;11.302;2023-01-25T04:10:23;2.10;;;1.73;;
33162;SDS011;29282;45.656;11.302;2023-01-25T04:12:49;2.85;;;1.98;;
33162;SDS011;29282;45.656;11.302;2023-01-25T04:15:14;3.88;;;2.28;;
33162;SDS011;29282;45.656;11.302;2023-01-25T04:17:39;2.30;;;1.60;;
33162;SDS011;29282;45.656;11.302;2023-01-25T04:20:05;4.05;;;1.85;;
33162;SDS011;29282;45.656;11.302;2023-01-25T04:22:31;2.42;;;1.70;;
33162;SDS011;29282;45.656;11.302;2023-01-25T04:24:56;2.80;;;1.90;;
33162;SDS011;29282;45.656;11.302;2023-01-25T04:27:22;2.13;;;1.70;;
33162;SDS011;29282;45.656;11.302;2023-01-25T04:29:47;1.98;;;1.63;;
33162;SDS011;29282;45.656;11.302;2023-01-25T04:32:13;2.63;;;1.92;;
33162;SDS011;29282;45.656;11.302;2023-01-25T04:34:38;2.63;;;1.80;;
33162;SDS011;29282;45.656;11.302;2023-01-25T04:37:03;2.63;;;1.70;;
33162;SDS011;29282;45.656;11.302;2023-01-25T04:39:29;3.22;;;1.85;;
33162;SDS011;29282;45.656;11.302;2023-01-25T04:41:54;2.33;;;1.40;;
33162;SDS011;29282;45.656;11.302;2023-01-25T04:44:20;2.20;;;1.60;;
33162;SDS011;29282;45.656;11.302;2023-01-25T04:46:45;2.08;;;1.70;;
33162;SDS011;29282;45.656;11.302;2023-01-25T04:49:11;2.03;;;1.52;;
33162;SDS011;29282;45.656;11.302;2023-01-25T04:51:36;2.80;;;1.65;;
33162;SDS011;29282;45.656;11.302;2023-01-25T04:54:01;1.83;;;1.50;;
33162;SDS011;29282;45.656;11.302;2023-01-25T04:56:27;2.35;;;1.70;;
33162;SDS011;29282;45.656;11.302;2023-01-25T04:58:52;2.97;;;1.90;;
33162;SDS011;29282;45.656;11.302;2023-01-25T05:01:18;2.67;;;1.83;;
33162;SDS011;29282;45.656;11.302;2023-01-25T05:03:43;1.92;;;1.50;;
33162;SDS011;29282;45.656;11.302;2023-01-25T05:06:09;2.75;;;1.73;;
33162;SDS011;29282;45.656;11.302;2023-01-25T05:08:34;2.10;;;1.55;;
33162;SDS011;29282;45.656;11.302;2023-01-25T05:11:00;1.92;;;1.60;;
33162;SDS011;29282;45.656;11.302;2023-01-25T05:13:25;2.17;;;1.65;;
33162;SDS011;29282;45.656;11.302;2023-01-25T05:15:51;1.75;;;1.50;;
33162;SDS011;29282;45.656;11.302;2023-01-25T05:18:16;2.83;;;1.60;;
33162;SDS011;29282;45.656;11.302;2023-01-25T05:20:41;2.78;;;1.75;;
33162;SDS011;29282;45.656;11.302;2023-01-25T05:23:07;2.15;;;1.50;;
33162;SDS011;29282;45.656;11.302;2023-01-25T05:25:32;2.33;;;1.52;;
33162;SDS011;29282;45.656;11.302;2023-01-25T05:28:16;2.53;;;1.67;;
33162;SDS011;29282;45.656;11.302;2023-01-25T05:30:42;6.88;;;2.08;;
33162;SDS011;29282;45.656;11.302;2023-01-25T05:33:07;7.97;;;2.30;;
33162;SDS011;29282;45.656;11.302;2023-01-25T05:35:32;8.68;;;2.58;;
33162;SDS011;29282;45.656;11.302;2023-01-25T05:37:58;7.32;;;2.50;;
33162;SDS011;29282;45.656;11.302;2023-01-25T05:40:24;6.55;;;2.75;;
33162;SDS011;29282;45.656;11.302;2023-01-25T05:42:54;8.05;;;2.63;;
33162;SDS011;29282;45.656;11.302;2023-01-25T05:45:20;6.32;;;2.83;;
33162;SDS011;29282;45.656;11.302;2023-01-25T05:47:46;10.20;;;3.05;;
33162;SDS011;29282;45.656;11.302;2023-01-25T05:50:11;6.43;;;3.17;;
33162;SDS011;29282;45.656;11.302;2023-01-25T05:52:37;6.85;;;2.88;;
33162;SDS011;29282;45.656;11.302;2023-01-25T05:55:02;6.03;;;2.88;;
33162;SDS011;29282;45.656;11.302;2023-01-25T05:57:28;8.13;;;2.67;;
33162;SDS011;29282;45.656;11.302;2023-01-25T05:59:53;9.35;;;2.88;;
33162;SDS011;29282;45.656;11.302;2023-01-25T06:02:19;5.97;;;3.00;;
33162;SDS011;29282;45.656;11.302;2023-01-25T06:04:45;8.05;;;3.53;;
33162;SDS011;29282;45.656;11.302;2023-01-25T06:07:11;6.25;;;3.30;;
33162;SDS011;29282;45.656;11.302;2023-01-25T06:09:36;11.20;;;3.03;;
33162;SDS011;29282;45.656;11.302;2023-01-25T06:12:02;10.25;;;2.75;;
33162;SDS011;29282;45.656;11.302;2023-01-25T06:14:30;6.05;;;3.00;;
33162;SDS011;29282;45.656;11.302;2023-01-25T06:16:55;7.95;;;3.17;;
33162;SDS011;29282;45.656;11.302;2023-01-25T06:19:21;10.02;;;3.00;;
33162;SDS011;29282;45.656;11.302;2023-01-25T06:21:48;6.45;;;2.90;;
33162;SDS011;29282;45.656;11.302;2023-01-25T06:24:14;5.35;;;2.72;;
33162;SDS011;29282;45.656;11.302;2023-01-25T06:26:40;8.57;;;3.45;;
33162;SDS011;29282;45.656;11.302;2023-01-25T06:29:05;4.57;;;2.50;;
33162;SDS011;29282;45.656;11.302;2023-01-25T06:31:31;6.88;;;3.00;;
33162;SDS011;29282;45.656;11.302;2023-01-25T06:33:56;8.57;;;3.38;;
33162;SDS011;29282;45.656;11.302;2023-01-25T06:36:24;7.22;;;3.10;;
33162;SDS011;29282;45.656;11.302;2023-01-25T06:38:50;6.97;;;2.85;;
33162;SDS011;29282;45.656;11.302;2023-01-25T06:41:16;5.43;;;2.60;;
33162;SDS011;29282;45.656;11.302;2023-01-25T06:43:43;7.75;;;3.53;;
33162;SDS011;29282;45.656;11.302;2023-01-25T06:46:09;8.02;;;3.20;;
33162;SDS011;29282;45.656;11.302;2023-01-25T06:48:38;14.38;;;3.67;;
33162;SDS011;29282;45.656;11.302;2023-01-25T06:51:06;9.60;;;3.13;;
33162;SDS011;29282;45.656;11.302;2023-01-25T06:53:34;13.88;;;2.92;;
33162;SDS011;29282;45.656;11.302;2023-01-25T06:58:38;12.18;;;3.40;;
33162;SDS011;29282;45.656;11.302;2023-01-25T07:01:15;7.22;;;3.58;;
33162;SDS011;29282;45.656;11.302;2023-01-25T07:03:48;6.97;;;3.65;;
33162;SDS011;29282;45.656;11.302;2023-01-25T07:06:15;7.72;;;3.53;;
33162;SDS011;29282;45.656;11.302;2023-01-25T07:08:41;7.40;;;3.88;;
33162;SDS011;29282;45.656;11.302;2023-01-25T07:11:07;7.78;;;3.47;;
33162;SDS011;29282;45.656;11.302;2023-01-25T07:13:37;8.05;;;3.00;;
33162;SDS011;29282;45.656;11.302;2023-01-25T07:16:05;11.45;;;3.75;;
33162;SDS011;29282;45.656;11.302;2023-01-25T07:18:32;8.80;;;3.72;;
33162;SDS011;29282;45.656;11.302;2023-01-25T07:21:05;13.25;;;4.32;;
33162;SDS011;29282;45.656;11.302;2023-01-25T07:23:33;7.60;;;3.83;;
33162;SDS011;29282;45.656;11.302;2023-01-25T07:26:00;8.68;;;3.50;;
33162;SDS011;29282;45.656;11.302;2023-01-25T07:28:25;7.25;;;3.60;;
33162;SDS011;29282;45.656;11.302;2023-01-25T07:30:51;5.88;;;3.90;;
33162;SDS011;29282;45.656;11.302;2023-01-25T07:33:16;9.68;;;4.05;;
33162;SDS011;29282;45.656;11.302;2023-01-25T07:35:42;5.80;;;3.72;;
33162;SDS011;29282;45.656;11.302;2023-01-25T07:38:07;7.82;;;3.95;;
33162;SDS011;29282;45.656;11.302;2023-01-25T07:40:33;6.18;;;3.03;;
33162;SDS011;29282;45.656;11.302;2023-01-25T07:42:59;9.68;;;3.90;;
33162;SDS011;29282;45.656;11.302;2023-01-25T07:45:24;6.63;;;3.40;;
33162;SDS011;29282;45.656;11.302;2023-01-25T07:47:56;8.20;;;4.00;;
33162;SDS011;29282;45.656;11.302;2023-01-25T07:50:23;5.70;;;3.40;;
33162;SDS011;29282;45.656;11.302;2023-01-25T07:52:50;11.60;;;3.60;;
33162;SDS011;29282;45.656;11.302;2023-01-25T07:55:15;13.38;;;3.92;;
33162;SDS011;29282;45.656;11.302;2023-01-25T07:57:41;10.52;;;4.18;;
33162;SDS011;29282;45.656;11.302;2023-01-25T08:00:06;8.30;;;3.97;;
33162;SDS011;29282;45.656;11.302;2023-01-25T08:02:34;10.45;;;3.17;;
33162;SDS011;29282;45.656;11.302;2023-01-25T08:04:59;10.15;;;3.95;;
33162;SDS011;29282;45.656;11.302;2023-01-25T08:07:26;9.75;;;3.40;;
33162;SDS011;29282;45.656;11.302;2023-01-25T08:09:53;5.47;;;3.40;;
33162;SDS011;29282;45.656;11.302;2023-01-25T08:12:18;8.13;;;3.60;;
33162;SDS011;29282;45.656;11.302;2023-01-25T08:14:44;7.65;;;3.53;;
33162;SDS011;29282;45.656;11.302;2023-01-25T08:17:09;7.70;;;3.63;;
33162;SDS011;29282;45.656;11.302;2023-01-25T08:19:35;6.78;;;3.40;;
33162;SDS011;29282;45.656;11.302;2023-01-25T08:22:01;6.22;;;3.33;;
33162;SDS011;29282;45.656;11.302;2023-01-25T08:24:26;7.43;;;3.90;;
33162;SDS011;29282;45.656;11.302;2023-01-25T08:26:51;5.22;;;3.40;;
33162;SDS011;29282;45.656;11.302;2023-01-25T08:29:17;7.43;;;3.58;;
33162;SDS011;29282;45.656;11.302;2023-01-25T08:31:42;4.85;;;3.33;;
33162;SDS011;29282;45.656;11.302;2023-01-25T08:34:09;7.88;;;3.63;;
33162;SDS011;29282;45.656;11.302;2023-01-25T08:36:35;7.25;;;3.83;;
33162;SDS011;29282;45.656;11.302;2023-01-25T08:39:05;6.75;;;3.55;;
33162;SDS011;29282;45.656;11.302;2023-01-25T08:41:32;5.60;;;3.60;;
33162;SDS011;29282;45.656;11.302;2023-01-25T08:43:58;6.03;;;3.67;;
33162;SDS011;29282;45.656;11.302;2023-01-25T08:46:25;5.82;;;3.63;;
33162;SDS011;29282;45.656;11.302;2023-01-25T08:48:55;7.82;;;3.70;;
33162;SDS011;29282;45.656;11.302;2023-01-25T08:51:21;6.15;;;3.60;;
33162;SDS011;29282;45.656;11.302;2023-01-25T08:53:48;5.82;;;3.30;;
33162;SDS011;29282;45.656;11.302;2023-01-25T08:56:13;6.07;;;3.72;;
33162;SDS011;29282;45.656;11.302;2023-01-25T08:58:41;7.43;;;3.80;;
33162;SDS011;29282;45.656;11.302;2023-01-25T09:01:09;7.72;;;3.60;;
33162;SDS011;29282;45.656;11.302;2023-01-25T09:03:36;5.15;;;2.90;;
33162;SDS011;29282;45.656;11.302;2023-01-25T09:06:03;8.68;;;3.65;;
33162;SDS011;29282;45.656;11.302;2023-01-25T09:08:29;7.00;;;3.33;;
33162;SDS011;29282;45.656;11.302;2023-01-25T09:10:59;5.80;;;3.20;;
33162;SDS011;29282;45.656;11.302;2023-01-25T09:13:25;8.07;;;3.60;;
33162;SDS011;29282;45.656;11.302;2023-01-25T09:15:50;4.13;;;3.40;;
33162;SDS011;29282;45.656;11.302;2023-01-25T09:18:16;7.28;;;3.75;;
33162;SDS011;29282;45.656;11.302;2023-01-25T09:20:41;6.68;;;3.55;;
33162;SDS011;29282;45.656;11.302;2023-01-25T09:23:07;8.85;;;3.85;;
33162;SDS011;29282;45.656;11.302;2023-01-25T09:25:32;6.88;;;3.53;;
33162;SDS011;29282;45.656;11.302;2023-01-25T09:27:59;6.55;;;3.28;;
33162;SDS011;29282;45.656;11.302;2023-01-25T09:30:25;6.28;;;3.33;;
33162;SDS011;29282;45.656;11.302;2023-01-25T09:32:51;5.03;;;3.47;;
33162;SDS011;29282;45.656;11.302;2023-01-25T09:35:16;6.65;;;3.40;;
33162;SDS011;29282;45.656;11.302;2023-01-25T09:37:42;7.75;;;3.70;;
33162;SDS011;29282;45.656;11.302;2023-01-25T09:40:17;4.60;;;3.22;;
33162;SDS011;29282;45.656;11.302;2023-01-25T09:48:01;5.78;;;2.97;;
33162;SDS011;29282;45.656;11.302;2023-01-25T09:53:20;5.47;;;3.40;;
33162;SDS011;29282;45.656;11.302;2023-01-25T09:55:50;8.10;;;3.70;;
33162;SDS011;29282;45.656;11.302;2023-01-25T09:58:33;4.75;;;3.30;;
33162;SDS011;29282;45.656;11.302;2023-01-25T10:01:19;5.53;;;3.10;;
33162;SDS011;29282;45.656;11.302;2023-01-25T10:04:21;6.03;;;3.63;;
33162;SDS011;29282;45.656;11.302;2023-01-25T10:06:55;4.88;;;3.20;;
33162;SDS011;29282;45.656;11.302;2023-01-25T10:12:20;3.35;;;2.97;;
33162;SDS011;29282;45.656;11.302;2023-01-25T10:14:48;4.45;;;2.85;;
33162;SDS011;29282;45.656;11.302;2023-01-25T10:22:28;5.07;;;3.00;;
33162;SDS011;29282;45.656;11.302;2023-01-25T10:32:59;5.15;;;3.33;;
33162;SDS011;29282;45.656;11.302;2023-01-25T10:35:33;4.18;;;2.95;;
33162;SDS011;29282;45.656;11.302;2023-01-25T10:38:13;4.63;;;3.17;;
33162;SDS011;29282;45.656;11.302;2023-01-25T10:40:47;3.72;;;2.90;;
33162;SDS011;29282;45.656;11.302;2023-01-25T10:43:20;4.05;;;3.00;;
33162;SDS011;29282;45.656;11.302;2023-01-25T10:45:46;6.28;;;3.60;;
33162;SDS011;29282;45.656;11.302;2023-01-25T10:48:22;4.55;;;2.70;;
33162;SDS011;29282;45.656;11.302;2023-01-25T10:50:51;4.30;;;3.40;;
33162;SDS011;29282;45.656;11.302;2023-01-25T10:53:29;5.63;;;3.28;;
33162;SDS011;29282;45.656;11.302;2023-01-25T10:56:10;3.90;;;2.95;;
33162;SDS011;29282;45.656;11.302;2023-01-25T10:58:48;4.47;;;3.13;;
33162;SDS011;29282;45.656;11.302;2023-01-25T11:01:29;3.97;;;3.05;;
33162;SDS011;29282;45.656;11.302;2023-01-25T11:03:56;5.28;;;2.72;;
33162;SDS011;29282;45.656;11.302;2023-01-25T11:06:29;4.43;;;2.58;;
33162;SDS011;29282;45.656;11.302;2023-01-25T11:09:00;4.43;;;2.97;;
33162;SDS011;29282;45.656;11.302;2023-01-25T11:11:53;4.55;;;3.08;;
33162;SDS011;29282;45.656;11.302;2023-01-25T11:14:21;5.40;;;3.20;;
33162;SDS011;29282;45.656;11.302;2023-01-25T11:16:48;5.22;;;3.10;;
33162;SDS011;29282;45.656;11.302;2023-01-25T11:19:27;4.20;;;3.10;;
33162;SDS011;29282;45.656;11.302;2023-01-25T11:21:58;6.00;;;3.25;;
33162;SDS011;29282;45.656;11.302;2023-01-25T11:24:25;4.80;;;2.90;;
33162;SDS011;29282;45.656;11.302;2023-01-25T11:30:14;5.32;;;3.00;;
33162;SDS011;29282;45.656;11.302;2023-01-25T11:32:43;4.50;;;2.97;;
33162;SDS011;29282;45.656;11.302;2023-01-25T11:35:15;5.10;;;3.05;;
33162;SDS011;29282;45.656;11.302;2023-01-25T11:38:11;4.53;;;2.90;;
33162;SDS011;29282;45.656;11.302;2023-01-25T11:40:40;4.05;;;2.80;;
33162;SDS011;29282;45.656;11.302;2023-01-25T11:51:28;3.45;;;2.88;;
33162;SDS011;29282;45.656;11.302;2023-01-25T11:56:54;3.75;;;2.78;;
33162;SDS011;29282;45.656;11.302;2023-01-25T12:02:04;4.07;;;2.80;;
33162;SDS011;29282;45.656;11.302;2023-01-25T12:13:49;3.80;;;2.75;;
33162;SDS011;29282;45.656;11.302;2023-01-25T12:33:46;3.53;;;2.60;;
33162;SDS011;29282;45.656;11.302;2023-01-25T12:36:32;4.32;;;2.50;;
33162;SDS011;29282;45.656;11.302;2023-01-25T12:47:01;5.28;;;3.13;;
33162;SDS011;29282;45.656;11.302;2023-01-25T12:49:47;3.35;;;2.45;;
33162;SDS011;29282;45.656;11.302;2023-01-25T12:52:32;4.78;;;2.60;;
33162;SDS011;29282;45.656;11.302;2023-01-25T12:55:11;3.10;;;2.60;;
33162;SDS011;29282;45.656;11.302;2023-01-25T12:57:50;3.72;;;2.45;;
33162;SDS011;29282;45.656;11.302;2023-01-25T13:00:54;3.55;;;2.80;;
33162;SDS011;29282;45.656;11.302;2023-01-25T13:03:36;6.70;;;3.30;;
33162;SDS011;29282;45.656;11.302;2023-01-25T13:06:24;3.25;;;2.40;;
33162;SDS011;29282;45.656;11.302;2023-01-25T13:09:06;3.45;;;2.60;;
33162;SDS011;29282;45.656;11.302;2023-01-25T13:11:41;5.25;;;2.70;;
33162;SDS011;29282;45.656;11.302;2023-01-25T13:14:19;4.03;;;2.63;;
33162;SDS011;29282;45.656;11.302;2023-01-25T13:16:53;4.00;;;2.70;;
33162;SDS011;29282;45.656;11.302;2023-01-25T13:19:41;6.10;;;2.88;;
33162;SDS011;29282;45.656;11.302;2023-01-25T13:22:11;2.92;;;2.33;;
33162;SDS011;29282;45.656;11.302;2023-01-25T13:27:29;3.22;;;2.25;;
33162;SDS011;29282;45.656;11.302;2023-01-25T13:34:57;4.18;;;2.63;;
33162;SDS011;29282;45.656;11.302;2023-01-25T13:37:30;4.60;;;2.88;;
33162;SDS011;29282;45.656;11.302;2023-01-25T13:39:57;5.70;;;2.70;;
33162;SDS011;29282;45.656;11.302;2023-01-25T13:42:25;3.63;;;2.55;;
33162;SDS011;29282;45.656;11.302;2023-01-25T13:45:12;4.47;;;2.83;;
33162;SDS011;29282;45.656;11.302;2023-01-25T13:47:42;5.78;;;2.80;;
33162;SDS011;29282;45.656;11.302;2023-01-25T13:50:23;6.55;;;2.97;;
33162;SDS011;29282;45.656;11.302;2023-01-25T13:55:27;6.78;;;3.10;;
33162;SDS011;29282;45.656;11.302;2023-01-25T13:58:07;7.95;;;2.72;;
33162;SDS011;29282;45.656;11.302;2023-01-25T14:03:40;8.27;;;2.80;;
33162;SDS011;29282;45.656;11.302;2023-01-25T14:06:41;4.85;;;2.58;;
33162;SDS011;29282;45.656;11.302;2023-01-25T14:09:13;9.20;;;2.90;;
33162;SDS011;29282;45.656;11.302;2023-01-25T14:11:45;5.65;;;2.20;;
33162;SDS011;29282;45.656;11.302;2023-01-25T14:14:25;2.88;;;2.50;;
33162;SDS011;29282;45.656;11.302;2023-01-25T14:19:49;3.95;;;2.40;;
33162;SDS011;29282;45.656;11.302;2023-01-25T14:22:22;3.70;;;2.83;;
33162;SDS011;29282;45.656;11.302;2023-01-25T14:27:36;3.03;;;2.58;;
33162;SDS011;29282;45.656;11.302;2023-01-25T14:32:47;3.63;;;2.55;;
33162;SDS011;29282;45.656;11.302;2023-01-25T14:35:30;2.78;;;2.45;;
33162;SDS011;29282;45.656;11.302;2023-01-25T14:37:57;5.70;;;2.60;;
33162;SDS011;29282;45.656;11.302;2023-01-25T14:40:24;3.30;;;2.78;;
33162;SDS011;29282;45.656;11.302;2023-01-25T14:42:52;3.97;;;2.70;;
33162;SDS011;29282;45.656;11.302;2023-01-25T14:45:18;3.47;;;2.75;;
33162;SDS011;29282;45.656;11.302;2023-01-25T14:47:48;4.00;;;2.90;;
33162;SDS011;29282;45.656;11.302;2023-01-25T14:53:18;5.47;;;2.90;;
33162;SDS011;29282;45.656;11.302;2023-01-25T14:55:47;2.88;;;2.40;;
33162;SDS011;29282;45.656;11.302;2023-01-25T14:58:16;3.88;;;2.50;;
33162;SDS011;29282;45.656;11.302;2023-01-25T15:00:54;5.18;;;3.00;;
33162;SDS011;29282;45.656;11.302;2023-01-25T15:03:24;5.55;;;3.00;;
33162;SDS011;29282;45.656;11.302;2023-01-25T15:05:53;3.80;;;2.45;;
33162;SDS011;29282;45.656;11.302;2023-01-25T15:08:28;4.72;;;2.72;;
33162;SDS011;29282;45.656;11.302;2023-01-25T15:10:59;3.92;;;2.67;;
33162;SDS011;29282;45.656;11.302;2023-01-25T15:13:45;3.30;;;2.42;;
33162;SDS011;29282;45.656;11.302;2023-01-25T15:16:11;4.15;;;2.60;;
33162;SDS011;29282;45.656;11.302;2023-01-25T15:18:49;3.40;;;2.65;;
33162;SDS011;29282;45.656;11.302;2023-01-25T15:21:33;4.88;;;2.78;;
33162;SDS011;29282;45.656;11.302;2023-01-25T15:23:59;3.53;;;2.55;;
33162;SDS011;29282;45.656;11.302;2023-01-25T15:26:30;4.80;;;2.67;;
33162;SDS011;29282;45.656;11.302;2023-01-25T15:28:58;5.07;;;2.95;;
33162;SDS011;29282;45.656;11.302;2023-01-25T15:31:33;4.53;;;2.90;;
33162;SDS011;29282;45.656;11.302;2023-01-25T15:34:00;4.50;;;2.47;;
33162;SDS011;29282;45.656;11.302;2023-01-25T15:36:27;5.10;;;2.53;;
33162;SDS011;29282;45.656;11.302;2023-01-25T15:38:54;3.63;;;2.90;;
33162;SDS011;29282;45.656;11.302;2023-01-25T15:41:19;3.58;;;2.90;;
33162;SDS011;29282;45.656;11.302;2023-01-25T15:43:45;3.63;;;2.63;;
33162;SDS011;29282;45.656;11.302;2023-01-25T15:46:18;3.83;;;2.88;;
33162;SDS011;29282;45.656;11.302;2023-01-25T15:48:48;2.90;;;2.50;;
33162;SDS011;29282;45.656;11.302;2023-01-25T15:51:15;4.22;;;2.70;;
33162;SDS011;29282;45.656;11.302;2023-01-25T15:53:41;3.25;;;2.95;;
33162;SDS011;29282;45.656;11.302;2023-01-25T15:56:17;4.78;;;2.70;;
33162;SDS011;29282;45.656;11.302;2023-01-25T15:58:46;3.90;;;2.60;;
33162;SDS011;29282;45.656;11.302;2023-01-25T16:01:19;5.18;;;2.63;;
33162;SDS011;29282;45.656;11.302;2023-01-25T16:03:46;2.67;;;2.47;;
33162;SDS011;29282;45.656;11.302;2023-01-25T16:06:30;3.80;;;2.75;;
33162;SDS011;29282;45.656;11.302;2023-01-25T16:08:59;3.80;;;2.65;;
33162;SDS011;29282;45.656;11.302;2023-01-25T16:11:26;4.75;;;2.60;;
33162;SDS011;29282;45.656;11.302;2023-01-25T16:13:52;4.15;;;3.17;;
33162;SDS011;29282;45.656;11.302;2023-01-25T16:16:19;4.38;;;2.60;;
33162;SDS011;29282;45.656;11.302;2023-01-25T16:18:46;3.47;;;2.60;;
33162;SDS011;29282;45.656;11.302;2023-01-25T16:21:12;3.45;;;2.38;;
33162;SDS011;29282;45.656;11.302;2023-01-25T16:23:38;3.60;;;2.67;;
33162;SDS011;29282;45.656;11.302;2023-01-25T16:26:09;4.88;;;2.65;;
33162;SDS011;29282;45.656;11.302;2023-01-25T16:28:41;2.95;;;2.55;;
33162;SDS011;29282;45.656;11.302;2023-01-25T16:31:09;3.45;;;2.55;;
33162;SDS011;29282;45.656;11.302;2023-01-25T16:33:37;3.00;;;2.60;;